createdAt,value
2019-03-21T00:02:12.703Z,52.87
2019-03-21T00:05:02.305Z,53.04
2019-03-21T00:07:51.327Z,53.16
2019-03-21T00:11:35.868Z,53.78
2019-03-21T00:15:09.472Z,53.46
2019-03-21T00:18:04.626Z,53.36
2019-03-21T00:20:54.324Z,53.42
2019-03-21T00:23:43.441Z,53.43
2019-03-21T00:26:32.802Z,53.37
2019-03-21T00:29:21.675Z,53.37
2019-03-21T00:32:11.079Z,53.24
2019-03-21T00:35:00.585Z,53.04
2019-03-21T00:37:50.414Z,53.43
2019-03-21T00:40:43.874Z,53.60
2019-03-21T00:43:32.591Z,53.54
2019-03-21T00:46:22.137Z,53.86
2019-03-21T00:49:11.437Z,53.77
2019-03-21T00:52:00.096Z,54.16
2019-03-21T00:54:49.331Z,54.14
2019-03-21T00:57:38.716Z,54.38
2019-03-21T01:00:34.068Z,54.58
2019-03-21T01:03:22.807Z,54.51
2019-03-21T01:06:12.095Z,54.53
2019-03-21T01:09:01.442Z,54.44
2019-03-21T01:11:50.888Z,54.43
2019-03-21T01:14:39.585Z,55.01
2019-03-21T01:17:29.049Z,54.96
2019-03-21T01:20:18.128Z,54.77
2019-03-21T01:23:07.679Z,54.79
2019-03-21T01:25:57.853Z,54.63
2019-03-21T01:28:47.195Z,54.38
2019-03-21T01:31:36.691Z,54.77
2019-03-21T01:34:25.556Z,54.79
2019-03-21T01:37:15.195Z,54.72
2019-03-21T01:40:04.345Z,55.27
2019-03-21T01:42:53.519Z,54.84
2019-03-21T01:45:42.347Z,54.76
2019-03-21T01:48:31.237Z,55.16
2019-03-21T01:51:20.640Z,55.02
2019-03-21T01:54:10.845Z,55.05
2019-03-21T01:57:00.327Z,55.10
2019-03-21T01:59:50.621Z,54.98
2019-03-21T02:02:39.922Z,55.32
2019-03-21T02:05:28.565Z,55.28
2019-03-21T02:08:17.316Z,55.44
2019-03-21T02:11:06.716Z,55.54
2019-03-21T02:13:55.587Z,55.60
2019-03-21T02:16:44.425Z,55.99
2019-03-21T02:19:33.387Z,55.80
2019-03-21T02:22:23.016Z,55.65
2019-03-21T02:25:18.163Z,55.62
2019-03-21T02:28:06.883Z,55.34
2019-03-21T02:30:56.053Z,55.25
2019-03-21T02:33:44.884Z,55.70
2019-03-21T02:36:33.955Z,55.78
2019-03-21T02:39:22.732Z,55.45
2019-03-21T02:42:11.985Z,55.61
2019-03-21T02:45:08.459Z,55.74
2019-03-21T02:47:51.655Z,55.82
2019-03-21T02:50:40.574Z,55.42
2019-03-21T02:53:30.336Z,55.71
2019-03-21T02:56:20.056Z,55.76
2019-03-21T02:59:09.274Z,55.76
2019-03-21T03:01:58.916Z,56.40
2019-03-21T03:04:47.977Z,56.10
2019-03-21T03:07:37.540Z,56.44
2019-03-21T03:10:39.072Z,56.40
2019-03-21T03:13:28.693Z,56.53
2019-03-21T03:16:17.546Z,56.71
2019-03-21T03:19:07.068Z,57.25
2019-03-21T03:21:56.124Z,57.22
2019-03-21T03:24:44.976Z,57.20
2019-03-21T03:27:34.206Z,57.39
2019-03-21T03:30:24.349Z,57.20
2019-03-21T03:33:13.392Z,57.29
2019-03-21T03:36:02.445Z,57.47
2019-03-21T03:38:51.554Z,57.51
2019-03-21T03:41:40.869Z,57.47
2019-03-21T03:44:29.466Z,57.96
2019-03-21T03:47:18.856Z,57.69
2019-03-21T03:50:08.738Z,57.65
2019-03-21T03:52:57.317Z,57.58
2019-03-21T03:55:47.003Z,58.18
2019-03-21T03:58:36.801Z,58.17
2019-03-21T04:01:25.821Z,58.03
2019-03-21T04:04:15.751Z,58.21
2019-03-21T04:07:05.094Z,58.34
2019-03-21T04:09:54.545Z,58.65
2019-03-21T04:12:43.993Z,58.66
2019-03-21T04:15:33.134Z,59.04
2019-03-21T04:18:22.487Z,58.87
2019-03-21T04:21:11.696Z,58.88
2019-03-21T04:24:00.898Z,58.65
2019-03-21T04:26:49.885Z,58.66
2019-03-21T04:29:38.579Z,58.59
2019-03-21T04:32:28.390Z,58.38
2019-03-21T04:35:18.045Z,58.86
2019-03-21T04:38:07.409Z,58.82
2019-03-21T04:40:56.703Z,58.02
2019-03-21T04:43:46.216Z,58.35
2019-03-21T04:46:34.859Z,58.30
2019-03-21T04:49:24.758Z,58.49
2019-03-21T04:52:14.428Z,58.55
2019-03-21T04:55:02.974Z,58.65
2019-03-21T04:57:51.589Z,58.28
2019-03-21T05:00:40.861Z,58.07
2019-03-21T05:03:30.316Z,57.83
2019-03-21T05:06:19.333Z,57.97
2019-03-21T05:09:11.749Z,58.04
2019-03-21T05:12:01.442Z,58.40
2019-03-21T05:14:50.693Z,58.83
2019-03-21T05:17:39.321Z,58.99
2019-03-21T05:20:29.275Z,58.63
2019-03-21T05:23:18.671Z,58.59
2019-03-21T05:26:18.392Z,58.58
2019-03-21T05:29:07.412Z,58.62
2019-03-21T05:31:56.154Z,58.74
2019-03-21T05:34:45.057Z,58.63
2019-03-21T05:37:34.179Z,58.51
2019-03-21T05:40:22.811Z,58.62
2019-03-21T05:43:18.212Z,58.69
2019-03-21T05:46:07.561Z,59.21
2019-03-21T05:48:57.131Z,59.19
2019-03-21T05:51:46.560Z,59.10
2019-03-21T05:54:35.227Z,59.11
2019-03-21T05:57:23.873Z,58.99
2019-03-21T06:00:19.377Z,58.67
2019-03-21T06:03:16.106Z,59.15
2019-03-21T06:06:12.572Z,59.56
2019-03-21T06:09:02.346Z,59.13
2019-03-21T06:11:55.577Z,59.03
2019-03-21T06:14:49.118Z,59.19
2019-03-21T06:17:37.908Z,58.74
2019-03-21T06:20:41.593Z,59.05
2019-03-21T06:24:15.094Z,59.04
2019-03-21T06:27:14.881Z,59.05
2019-03-21T06:30:04.611Z,59.27
2019-03-21T06:32:53.880Z,59.11
2019-03-21T06:35:43.018Z,59.33
2019-03-21T06:38:32.318Z,59.38
2019-03-21T06:41:21.492Z,59.14
2019-03-21T06:44:10.579Z,58.96
2019-03-21T06:46:59.645Z,58.78
2019-03-21T06:49:48.528Z,58.70
2019-03-21T06:52:37.313Z,58.20
2019-03-21T06:55:26.732Z,57.75
2019-03-21T06:58:16.291Z,57.44
2019-03-21T07:01:05.267Z,56.84
2019-03-21T07:03:54.590Z,56.84
2019-03-21T07:06:43.355Z,57.06
2019-03-21T07:09:32.649Z,57.13
2019-03-21T07:12:21.834Z,56.36
2019-03-21T07:15:11.977Z,56.22
2019-03-21T07:18:00.805Z,55.46
2019-03-21T07:20:49.889Z,55.61
2019-03-21T07:23:39.096Z,55.49
2019-03-21T07:26:28.448Z,54.71
2019-03-21T07:29:18.191Z,54.59
2019-03-21T07:32:07.108Z,53.56
2019-03-21T07:34:56.296Z,53.59
2019-03-21T07:37:45.885Z,52.99
2019-03-21T07:40:34.852Z,51.88
2019-03-21T07:43:23.809Z,51.70
2019-03-21T07:46:13.256Z,51.45
2019-03-21T07:49:02.639Z,50.40
2019-03-21T07:51:51.334Z,51.31
2019-03-21T07:54:40.281Z,49.91
2019-03-21T07:57:29.681Z,48.62
2019-03-21T08:00:19.892Z,49.05
2019-03-21T08:03:08.987Z,47.71
2019-03-21T08:05:58.211Z,49.46
2019-03-21T08:08:47.817Z,46.65
2019-03-21T08:11:37.501Z,46.91
2019-03-21T08:14:26.622Z,46.45
2019-03-21T08:17:16.730Z,44.46
2019-03-21T08:20:07.976Z,46.00
2019-03-21T08:22:56.824Z,45.83
2019-03-21T08:25:45.774Z,45.27
2019-03-21T08:28:34.781Z,43.60
2019-03-21T08:31:24.279Z,44.05
2019-03-21T08:34:13.553Z,42.36
2019-03-21T08:37:02.122Z,43.33
2019-03-21T08:39:51.176Z,43.85
2019-03-21T08:42:40.412Z,44.38
2019-03-21T08:45:31.000Z,42.29
2019-03-21T08:48:20.231Z,42.98
2019-03-21T08:51:09.591Z,41.84
2019-03-21T08:53:58.353Z,41.32
2019-03-21T08:56:48.034Z,42.13
2019-03-21T08:59:37.222Z,41.15
2019-03-21T09:02:25.814Z,41.77
2019-03-21T09:05:15.277Z,41.20
2019-03-21T09:08:04.329Z,40.68
2019-03-21T09:10:53.808Z,41.72
2019-03-21T09:13:43.029Z,41.00
2019-03-21T09:16:32.099Z,41.79
2019-03-21T09:19:20.756Z,41.70
2019-03-21T09:22:10.114Z,41.50
2019-03-21T09:24:59.691Z,41.28
2019-03-21T09:27:48.616Z,40.53
2019-03-21T09:30:37.845Z,40.03
2019-03-21T09:33:27.143Z,38.97
2019-03-21T09:36:16.470Z,38.51
2019-03-21T09:39:07.469Z,37.33
2019-03-21T09:41:56.585Z,36.82
2019-03-21T09:44:45.468Z,38.04
2019-03-21T09:47:34.381Z,37.38
2019-03-21T09:50:28.435Z,36.02
2019-03-21T09:53:17.298Z,35.99
2019-03-21T09:56:06.322Z,36.39
2019-03-21T09:58:55.872Z,34.75
2019-03-21T10:01:45.484Z,34.53
2019-03-21T10:04:34.508Z,34.86
2019-03-21T10:07:24.074Z,34.63
2019-03-21T10:10:16.248Z,33.41
2019-03-21T10:13:06.096Z,34.60
2019-03-21T10:15:55.643Z,35.97
2019-03-21T10:18:45.187Z,35.91
2019-03-21T10:21:42.759Z,37.01
2019-03-21T10:24:24.650Z,36.67
2019-03-21T10:27:14.193Z,36.33
2019-03-21T10:30:03.451Z,35.49
2019-03-21T10:32:53.899Z,36.32
2019-03-21T10:35:43.719Z,35.58
2019-03-21T10:38:32.825Z,35.31
2019-03-21T10:41:22.076Z,33.98
2019-03-21T10:44:11.288Z,34.77
2019-03-21T10:47:00.669Z,33.41
2019-03-21T10:49:50.185Z,34.48
2019-03-21T10:52:40.000Z,33.10
2019-03-21T10:55:29.153Z,34.72
2019-03-21T10:58:18.334Z,32.64
2019-03-21T11:01:07.153Z,34.00
2019-03-21T11:03:55.992Z,33.45
2019-03-21T11:06:45.450Z,31.64
2019-03-21T11:09:34.695Z,33.25
2019-03-21T11:12:23.945Z,32.11
2019-03-21T11:15:13.182Z,33.04
2019-03-21T11:18:02.761Z,31.94
2019-03-21T11:20:53.223Z,31.72
2019-03-21T11:23:42.073Z,31.37
2019-03-21T11:26:31.447Z,32.67
2019-03-21T11:29:21.072Z,31.84
2019-03-21T11:32:10.816Z,30.78
2019-03-21T11:35:00.478Z,30.29
2019-03-21T11:37:49.287Z,30.21
2019-03-21T11:40:38.655Z,32.20
2019-03-21T11:43:27.537Z,29.34
2019-03-21T11:46:17.168Z,32.55
2019-03-21T11:49:06.598Z,29.19
2019-03-21T11:51:55.474Z,29.58
2019-03-21T11:54:44.161Z,32.05
2019-03-21T11:57:33.015Z,30.32
2019-03-21T12:00:21.740Z,31.14
2019-03-21T12:03:10.881Z,30.23
2019-03-21T12:06:00.096Z,29.35
2019-03-21T12:08:49.474Z,28.97
2019-03-21T12:11:39.004Z,30.55
2019-03-21T12:14:27.988Z,29.76
2019-03-21T12:17:17.038Z,29.87
2019-03-21T12:20:07.109Z,31.32
2019-03-21T12:22:56.186Z,31.89
2019-03-21T12:25:45.482Z,29.16
2019-03-21T12:28:34.408Z,30.60
2019-03-21T12:31:23.413Z,31.74
2019-03-21T12:34:13.236Z,29.87
2019-03-21T12:37:02.171Z,29.28
2019-03-21T12:39:51.496Z,29.09
2019-03-21T12:42:40.895Z,29.91
2019-03-21T12:45:29.955Z,29.51
2019-03-21T12:48:19.300Z,29.70
2019-03-21T12:51:08.814Z,30.65
2019-03-21T12:53:58.331Z,28.39
2019-03-21T12:56:47.068Z,28.50
2019-03-21T12:59:35.851Z,28.07
2019-03-21T13:02:32.241Z,28.42
2019-03-21T13:05:19.052Z,29.11
2019-03-21T13:08:08.333Z,28.56
2019-03-21T13:10:57.520Z,27.29
2019-03-21T13:13:46.885Z,28.54
2019-03-21T13:16:36.275Z,29.17
2019-03-21T13:19:25.742Z,28.40
2019-03-21T13:22:15.651Z,28.24
2019-03-21T13:25:05.800Z,28.24
2019-03-21T13:27:55.132Z,26.40
2019-03-21T13:30:44.674Z,27.00
2019-03-21T13:33:33.990Z,27.16
2019-03-21T13:36:23.198Z,25.90
2019-03-21T13:39:12.473Z,26.58
2019-03-21T13:42:01.837Z,26.79
2019-03-21T13:44:50.956Z,25.23
2019-03-21T13:47:40.409Z,25.23
2019-03-21T13:50:30.326Z,26.61
2019-03-21T13:53:19.378Z,26.61
2019-03-21T13:56:08.617Z,24.35
2019-03-21T13:58:57.907Z,24.35
2019-03-21T14:01:47.515Z,23.73
2019-03-21T14:04:36.927Z,23.37
2019-03-21T14:07:26.524Z,23.46
2019-03-21T14:10:15.456Z,21.17
2019-03-21T14:13:05.011Z,21.50
2019-03-21T14:15:54.392Z,21.67
2019-03-21T14:18:43.308Z,20.18
2019-03-21T14:21:32.041Z,21.15
2019-03-21T14:24:21.400Z,21.03
2019-03-21T14:27:10.387Z,18.95
2019-03-21T14:30:01.834Z,19.76
2019-03-21T14:32:49.477Z,19.39
2019-03-21T14:35:38.755Z,19.22
2019-03-21T14:38:27.492Z,17.86
2019-03-21T14:41:17.048Z,18.05
2019-03-21T14:44:07.206Z,19.52
2019-03-21T14:46:56.375Z,19.28
2019-03-21T14:49:45.915Z,19.19
2019-03-21T14:52:36.484Z,18.93
2019-03-21T14:55:25.949Z,18.70
2019-03-21T14:58:15.669Z,17.64
2019-03-21T15:01:05.058Z,18.59
2019-03-21T15:03:54.618Z,18.55
2019-03-21T15:06:43.552Z,18.58
2019-03-21T15:09:32.801Z,19.97
2019-03-21T15:12:22.204Z,18.00
2019-03-21T15:15:12.433Z,18.34
2019-03-21T15:18:01.406Z,17.72
2019-03-21T15:20:50.815Z,17.29
2019-03-21T15:23:41.161Z,18.47
2019-03-21T15:26:30.347Z,18.49
2019-03-21T15:29:19.067Z,18.24
2019-03-21T15:32:08.018Z,18.66
2019-03-21T15:34:57.383Z,18.85
2019-03-21T15:37:46.347Z,19.03
2019-03-21T15:40:35.313Z,19.04
2019-03-21T15:43:24.454Z,19.09
2019-03-21T15:46:13.698Z,18.21
2019-03-21T15:49:03.157Z,19.26
2019-03-21T15:51:52.286Z,18.77
2019-03-21T15:54:41.759Z,19.36
2019-03-21T15:57:31.974Z,19.97
2019-03-21T16:00:29.688Z,19.47
2019-03-21T16:03:18.578Z,19.48
2019-03-21T16:06:08.065Z,20.25
2019-03-21T16:08:57.489Z,19.51
2019-03-21T16:11:46.893Z,19.55
2019-03-21T16:14:35.916Z,19.22
2019-03-21T16:17:25.671Z,19.41
2019-03-21T16:20:14.587Z,19.25
2019-03-21T16:23:03.228Z,20.18
2019-03-21T16:25:53.045Z,20.54
2019-03-21T16:28:41.604Z,21.20
2019-03-21T16:31:30.684Z,21.75
2019-03-21T16:34:20.453Z,22.33
2019-03-21T16:37:12.034Z,23.10
2019-03-21T16:40:00.645Z,23.78
2019-03-21T16:42:50.263Z,23.46
2019-03-21T16:45:39.759Z,23.50
2019-03-21T16:48:28.895Z,24.33
2019-03-21T16:51:18.316Z,24.33
2019-03-21T16:54:16.497Z,24.56
2019-03-21T16:56:58.006Z,24.75
2019-03-21T16:59:47.360Z,24.95
2019-03-21T17:02:39.420Z,25.06
2019-03-21T17:05:29.112Z,25.18
2019-03-21T17:08:18.137Z,25.92
2019-03-21T17:11:07.445Z,26.16
2019-03-21T17:13:56.256Z,27.33
2019-03-21T17:16:45.697Z,26.67
2019-03-21T17:19:35.376Z,26.95
2019-03-21T17:22:24.523Z,26.66
2019-03-21T17:25:14.389Z,27.75
2019-03-21T17:28:03.598Z,27.77
2019-03-21T17:30:53.157Z,28.16
2019-03-21T17:33:42.525Z,28.03
2019-03-21T17:36:32.408Z,28.89
2019-03-21T17:39:20.938Z,29.16
2019-03-21T17:42:09.724Z,29.67
2019-03-21T17:44:58.937Z,30.64
2019-03-21T17:47:48.603Z,30.71
2019-03-21T17:50:38.762Z,30.14
2019-03-21T17:53:27.702Z,30.70
2019-03-21T17:56:16.891Z,30.36
2019-03-21T17:59:06.156Z,30.66
2019-03-21T18:01:55.269Z,31.93
2019-03-21T18:04:44.965Z,33.00
2019-03-21T18:07:34.220Z,32.34
2019-03-21T18:10:33.884Z,33.60
2019-03-21T18:13:23.139Z,33.15
2019-03-21T18:16:12.394Z,33.83
2019-03-21T18:19:02.170Z,33.93
2019-03-21T18:21:51.894Z,34.25
2019-03-21T18:24:52.991Z,34.50
2019-03-21T18:27:32.806Z,34.54
2019-03-21T18:30:21.561Z,34.74
2019-03-21T18:33:11.050Z,34.21
2019-03-21T18:36:00.714Z,34.91
2019-03-21T18:38:58.809Z,34.88
2019-03-21T18:41:40.952Z,34.74
2019-03-21T18:44:30.867Z,35.54
2019-03-21T18:47:20.944Z,35.85
2019-03-21T18:50:10.878Z,35.62
2019-03-21T18:52:59.836Z,36.06
2019-03-21T18:55:49.325Z,36.63
2019-03-21T18:58:38.340Z,36.92
2019-03-21T19:01:27.836Z,36.76
2019-03-21T19:04:18.190Z,37.16
2019-03-21T19:07:07.543Z,36.95
2019-03-21T19:09:57.478Z,37.78
2019-03-21T19:12:47.141Z,37.19
2019-03-21T19:15:37.027Z,36.82
2019-03-21T19:18:26.053Z,37.47
2019-03-21T19:21:17.989Z,37.12
2019-03-21T19:24:11.516Z,37.53
2019-03-21T19:27:00.480Z,37.12
2019-03-21T19:29:50.415Z,37.41
2019-03-21T19:32:40.511Z,38.35
2019-03-21T19:35:29.663Z,38.89
2019-03-21T19:38:19.667Z,39.02
2019-03-21T19:41:09.013Z,39.70
2019-03-21T19:43:58.516Z,39.55
2019-03-21T19:46:48.143Z,39.91
2019-03-21T19:49:37.610Z,39.69
2019-03-21T19:52:27.387Z,39.85
2019-03-21T19:55:25.879Z,39.79
2019-03-21T19:58:08.879Z,39.86
2019-03-21T20:00:58.148Z,40.17
2019-03-21T20:03:47.944Z,40.81
2019-03-21T20:06:36.844Z,39.58
2019-03-21T20:09:25.699Z,39.30
2019-03-21T20:12:15.330Z,39.29
2019-03-21T20:15:05.927Z,39.68
2019-03-21T20:17:54.897Z,40.70
2019-03-21T20:20:43.991Z,40.45
2019-03-21T20:23:33.449Z,40.87
2019-03-21T20:26:22.947Z,41.22
2019-03-21T20:29:12.468Z,41.70
2019-03-21T20:32:02.658Z,42.28
2019-03-21T20:34:52.181Z,42.19
2019-03-21T20:37:41.596Z,42.07
2019-03-21T20:40:31.075Z,42.61
2019-03-21T20:43:20.953Z,43.26
2019-03-21T20:46:10.497Z,43.22
2019-03-21T20:48:57.833Z,42.92
2019-03-21T20:51:47.206Z,43.39
2019-03-21T20:54:36.704Z,43.69
2019-03-21T20:57:25.914Z,44.37
2019-03-21T21:00:17.882Z,44.34
2019-03-21T21:03:06.839Z,44.42
2019-03-21T21:05:55.989Z,44.30
2019-03-21T21:08:45.557Z,44.29
2019-03-21T21:11:35.212Z,44.51
2019-03-21T21:14:24.232Z,44.70
2019-03-21T21:17:13.280Z,44.91
2019-03-21T21:20:02.408Z,44.66
2019-03-21T21:22:51.899Z,44.23
2019-03-21T21:25:41.548Z,44.26
2019-03-21T21:28:31.066Z,44.09
2019-03-21T21:31:20.339Z,44.68
2019-03-21T21:34:09.841Z,44.59
2019-03-21T21:36:59.314Z,45.42
2019-03-21T21:39:48.260Z,45.64
2019-03-21T21:42:37.809Z,45.25
2019-03-21T21:45:26.849Z,44.98
2019-03-21T21:48:16.239Z,45.53
2019-03-21T21:51:05.671Z,45.29
2019-03-21T21:53:54.904Z,45.23
2019-03-21T21:56:44.427Z,44.89
2019-03-21T21:59:33.446Z,45.01
2019-03-21T22:02:22.586Z,45.79
2019-03-21T22:05:11.334Z,46.07
2019-03-21T22:08:02.014Z,46.50
2019-03-21T22:10:51.075Z,46.90
2019-03-21T22:13:40.017Z,46.81
2019-03-21T22:16:29.247Z,47.35
2019-03-21T22:19:18.619Z,47.20
2019-03-21T22:22:08.155Z,47.33
2019-03-21T22:24:57.840Z,47.32
2019-03-21T22:27:47.354Z,46.48
2019-03-21T22:30:37.073Z,46.22
2019-03-21T22:33:26.744Z,45.78
2019-03-21T22:36:16.597Z,46.50
2019-03-21T22:39:07.959Z,47.12
2019-03-21T22:41:57.409Z,46.86
2019-03-21T22:44:46.540Z,47.27
2019-03-21T22:47:35.938Z,47.67
2019-03-21T22:50:25.373Z,48.17
2019-03-21T22:53:14.840Z,48.42
2019-03-21T22:56:03.958Z,48.38
2019-03-21T22:58:53.728Z,48.57
2019-03-21T23:01:42.566Z,48.90
2019-03-21T23:04:31.972Z,49.06
2019-03-21T23:07:22.112Z,49.21
2019-03-21T23:10:12.417Z,49.25
2019-03-21T23:13:01.528Z,49.63
2019-03-21T23:15:51.118Z,49.57
2019-03-21T23:18:40.750Z,49.48
2019-03-21T23:21:29.754Z,49.94
2019-03-21T23:24:18.911Z,50.48
2019-03-21T23:27:07.983Z,50.23
2019-03-21T23:29:57.052Z,50.14
2019-03-21T23:32:46.700Z,50.24
2019-03-21T23:35:35.798Z,49.42
2019-03-21T23:38:24.542Z,49.44
2019-03-21T23:41:14.052Z,50.27
2019-03-21T23:44:03.667Z,50.36
2019-03-21T23:46:54.389Z,50.51
2019-03-21T23:49:44.125Z,50.17
2019-03-21T23:52:33.819Z,50.57
2019-03-21T23:55:23.518Z,50.41
2019-03-21T23:58:12.651Z,50.32
